»·PEaware :: AAL772 KLAX-KLAS

AAL772 :: KLAX-KLAS

FLIGHT INFORMATION

Flight Status: Arrived
Operator:
American Airlines
More flights by this operator :: More flights under this callsign
Pilot: Taylor M. (19061)
Aircraft: AIRBUS A319
(A319)
More flights by this aircraft type
Origin: KLAX Los Angeles Intl
United States
Destination: KLAS McCarran Intl
United States
More flights between these airports :: More routes between these airports
Route: +ORCKA5 MISEN KEPEC6
File this flight plan on PilotEdge
Remarks: RMK / SIMBRIEF
Altitude:
(Current/Filed)
33,000ft
Speed:
(Current/Filed)
454kts
Departed: 12-Oct-20 05:25 PM
Arrived: 12-Oct-20 06:13 PM
Distance/Time
Traveled:
205nm/0:47
Distance/Time
To Go:
Arrived

Flight Plot

Page will automatically refresh every two minutes.

Flight plan parsing failed; only flown route is shown


Map Options




Map Legend


Flown Route
Filed Route
Departure Airport
Arrival Airport
Navaid (VOR, NDB)
Fix

Horizontal Profiles

Position Reports

Time Latitude Longitude Heading Altitude Ground
Speed
12-Oct-20 17:04 33.940342 -118.397645 58 114ft 0kts
12-Oct-20 17:05 33.940342 -118.397645 58 114ft 0kts
12-Oct-20 17:06 33.940342 -118.397645 58 114ft 0kts
12-Oct-20 17:07 33.940342 -118.397645 58 114ft 0kts
12-Oct-20 17:08 33.940342 -118.397645 58 114ft 0kts
12-Oct-20 17:09 33.940342 -118.397645 58 114ft 0kts
12-Oct-20 17:10 33.940342 -118.397645 58 114ft 0kts
12-Oct-20 17:11 33.940342 -118.397645 58 114ft 0kts
12-Oct-20 17:12 33.940342 -118.397645 58 114ft 0kts
12-Oct-20 17:13 33.940342 -118.397645 58 114ft 0kts
12-Oct-20 17:14 33.940342 -118.397645 58 114ft 0kts
12-Oct-20 17:15 33.940342 -118.397645 58 114ft 0kts
12-Oct-20 17:16 33.940328 -118.397672 58 114ft 4kts
12-Oct-20 17:17 33.940238 -118.398632 156 114ft 0kts
12-Oct-20 17:18 33.940238 -118.398632 156 114ft 0kts
12-Oct-20 17:19 33.939860 -118.397393 82 113ft 12kts
12-Oct-20 17:20 33.939414 -118.393773 83 108ft 14kts
12-Oct-20 17:21 33.940019 -118.388018 82 104ft 17kts
12-Oct-20 17:22 33.940569 -118.382500 83 101ft 14kts
12-Oct-20 17:23 33.940749 -118.380428 110 101ft 0kts
12-Oct-20 17:24 33.939455 -118.383664 263 101ft 80kts
12-Oct-20 17:25 33.934040 -118.434101 263 2636ft 181kts
12-Oct-20 17:26 33.916556 -118.511689 247 5207ft 269kts
12-Oct-20 17:27 33.865573 -118.569766 172 9142ft 297kts
12-Oct-20 17:28 33.834463 -118.490362 56 12108ft 326kts
12-Oct-20 17:29 33.915509 -118.442544 28 14755ft 358kts
12-Oct-20 17:30 33.979627 -118.350952 53 18287ft 357kts
12-Oct-20 17:31 34.036678 -118.249932 52 20845ft 373kts
12-Oct-20 17:32 34.096321 -118.144565 52 23157ft 386kts
12-Oct-20 17:33 34.157904 -118.036083 51 25226ft 398kts
12-Oct-20 17:34 34.221536 -117.923077 51 27081ft 410kts
12-Oct-20 17:35 34.286309 -117.807434 51 28740ft 420kts
12-Oct-20 17:36 34.352582 -117.688757 50 30226ft 429kts
12-Oct-20 17:37 34.423402 -117.570614 48 31535ft 437kts
12-Oct-20 17:38 34.495599 -117.449701 48 32717ft 445kts
12-Oct-20 17:39 34.568072 -117.327520 49 32992ft 447kts
12-Oct-20 17:40 34.640354 -117.204811 49 33019ft 447kts
12-Oct-20 17:42 34.712712 -117.081972 49 33049ft 447kts
12-Oct-20 17:43 34.783962 -116.960549 49 31878ft 435kts
12-Oct-20 17:44 34.853834 -116.841167 49 30612ft 428kts
12-Oct-20 17:45 34.921957 -116.724225 49 28874ft 415kts
12-Oct-20 17:46 34.987482 -116.608596 49 27058ft 428kts
12-Oct-20 17:47 35.054737 -116.488986 50 25266ft 426kts
12-Oct-20 17:48 35.128041 -116.379444 33 24077ft 409kts
12-Oct-20 17:49 35.215946 -116.295639 33 22878ft 392kts
12-Oct-20 17:50 35.300426 -116.214831 33 20978ft 380kts
12-Oct-20 17:51 35.371326 -116.124142 47 19746ft 356kts
12-Oct-20 17:52 35.432502 -116.034186 46 18860ft 347kts
12-Oct-20 17:53 35.494893 -115.943797 47 17522ft 345kts
12-Oct-20 17:54 35.556073 -115.854968 47 16031ft 336kts
12-Oct-20 17:55 35.615398 -115.768579 48 14549ft 327kts
12-Oct-20 17:56 35.673842 -115.685010 45 13067ft 316kts
12-Oct-20 17:57 35.734217 -115.606021 45 13035ft 318kts
12-Oct-20 17:58 35.813431 -115.571907 359 13006ft 311kts
12-Oct-20 17:59 35.900223 -115.567904 0 13033ft 311kts
12-Oct-20 18:00 35.979514 -115.536690 54 12839ft 318kts
12-Oct-20 18:00 36.006236 -115.454715 68 11842ft 299kts
12-Oct-20 18:02 36.029402 -115.344876 94 10784ft 286kts
12-Oct-20 18:02 36.023060 -115.264438 95 9767ft 279kts
12-Oct-20 18:04 36.015454 -115.158335 93 8404ft 245kts
12-Oct-20 18:04 36.010946 -115.091767 93 7288ft 239kts
12-Oct-20 18:06 36.005189 -114.996992 92 5717ft 218kts
12-Oct-20 18:06 36.001349 -114.936697 90 4822ft 196kts
12-Oct-20 18:07 36.038172 -114.917515 331 4817ft 184kts
12-Oct-20 18:08 36.073695 -114.959219 273 4705ft 185kts
12-Oct-20 18:09 36.073650 -115.014640 271 3824ft 146kts
12-Oct-20 18:10 36.073674 -115.064578 270 3074ft 143kts
12-Oct-20 18:11 36.073657 -115.113584 270 2309ft 141kts
12-Oct-20 18:12 36.073997 -115.144181 292 2099ft 24kts
12-Oct-20 18:13 36.074672 -115.145795 296 2104ft 0kts
12-Oct-20 18:14 36.074866 -115.146187 316 2104ft 5kts
12-Oct-20 18:15 36.077471 -115.146653 339 2104ft 0kts
12-Oct-20 18:16 36.079001 -115.148142 336 2104ft 12kts
12-Oct-20 18:17 36.081015 -115.147681 66 2097ft 0kts

Navigation Log

Ident Type
Flight plan parsing failed, navigation log unavailable